createdAt,value
2019-05-30T00:01:35.852Z,21.30
2019-05-30T00:02:35.818Z,21.27
2019-05-30T00:04:29.745Z,21.32
2019-05-30T00:05:29.693Z,21.32
2019-05-30T00:07:22.686Z,21.29
2019-05-30T00:08:22.874Z,21.30
2019-05-30T00:10:15.761Z,21.30
2019-05-30T00:11:15.939Z,21.30
2019-05-30T00:13:08.799Z,21.29
2019-05-30T00:14:08.996Z,21.29
2019-05-30T00:16:02.887Z,21.32
2019-05-30T00:17:03.034Z,21.22
2019-05-30T00:18:54.641Z,21.29
2019-05-30T00:19:55.042Z,21.20
2019-05-30T00:21:46.869Z,21.17
2019-05-30T00:22:46.839Z,21.30
2019-05-30T00:24:39.918Z,21.20
2019-05-30T00:25:39.874Z,21.25
2019-05-30T00:27:32.987Z,21.30
2019-05-30T00:28:32.930Z,21.32
2019-05-30T00:30:25.961Z,21.30
2019-05-30T00:31:25.906Z,21.22
2019-05-30T00:33:18.886Z,21.29
2019-05-30T00:34:18.851Z,21.29
2019-05-30T00:36:12.164Z,21.21
2019-05-30T00:37:12.113Z,21.20
2019-05-30T00:39:06.554Z,21.27
2019-05-30T00:40:06.170Z,21.18
2019-05-30T00:41:58.380Z,21.33
2019-05-30T00:42:58.323Z,21.27
2019-05-30T00:44:51.521Z,21.21
2019-05-30T00:45:51.486Z,21.22
2019-05-30T00:47:44.503Z,21.30
2019-05-30T00:48:44.446Z,21.22
2019-05-30T00:50:37.436Z,21.20
2019-05-30T00:51:37.398Z,21.20
2019-05-30T00:53:29.484Z,21.22
2019-05-30T00:54:29.438Z,21.18
2019-05-30T00:56:23.362Z,21.30
2019-05-30T00:57:23.310Z,21.18
2019-05-30T00:59:16.338Z,21.20
2019-05-30T01:00:16.495Z,21.17
2019-05-30T01:02:09.358Z,21.18
2019-05-30T01:03:09.554Z,21.20
2019-05-30T01:05:03.450Z,21.25
2019-05-30T01:06:03.006Z,21.29
2019-05-30T01:07:55.290Z,21.32
2019-05-30T01:08:55.242Z,21.15
2019-05-30T01:10:48.330Z,21.22
2019-05-30T01:11:48.294Z,21.20
2019-05-30T01:13:40.385Z,21.27
2019-05-30T01:14:40.329Z,21.18
2019-05-30T01:16:33.319Z,21.22
2019-05-30T01:17:33.285Z,21.12
2019-05-30T01:19:26.430Z,21.20
2019-05-30T01:20:26.343Z,21.24
2019-05-30T01:22:19.331Z,21.20
2019-05-30T01:23:19.298Z,21.14
2019-05-30T01:25:12.411Z,21.20
2019-05-30T01:26:12.357Z,21.15
2019-05-30T01:28:05.680Z,21.17
2019-05-30T01:29:05.647Z,21.18
2019-05-30T01:31:03.115Z,21.30
2019-05-30T01:31:59.390Z,21.18
2019-05-30T01:33:51.394Z,21.22
2019-05-30T01:34:51.329Z,21.29
2019-05-30T01:36:43.415Z,21.20
2019-05-30T01:37:43.362Z,21.33
2019-05-30T01:39:36.378Z,21.20
2019-05-30T01:40:36.556Z,21.21
2019-05-30T01:42:30.252Z,21.30
2019-05-30T01:43:30.428Z,21.32
2019-05-30T01:45:23.213Z,21.20
2019-05-30T01:46:23.159Z,21.24
2019-05-30T01:48:15.233Z,21.21
2019-05-30T01:49:15.185Z,21.22
2019-05-30T01:51:08.685Z,21.24
2019-05-30T01:52:08.692Z,21.29
2019-05-30T01:54:00.559Z,21.29
2019-05-30T01:55:00.529Z,21.20
2019-05-30T01:56:53.272Z,21.20
2019-05-30T01:57:53.465Z,21.29
2019-05-30T01:59:46.245Z,21.21
2019-05-30T02:00:46.192Z,21.12
2019-05-30T02:02:38.277Z,21.18
2019-05-30T02:03:38.454Z,21.21
2019-05-30T02:05:31.214Z,21.12
2019-05-30T02:06:31.205Z,21.29
2019-05-30T02:08:24.288Z,21.17
2019-05-30T02:09:24.240Z,21.25
2019-05-30T02:11:17.354Z,21.21
2019-05-30T02:12:17.297Z,21.29
2019-05-30T02:14:10.290Z,21.17
2019-05-30T02:15:10.302Z,21.17
2019-05-30T02:17:03.663Z,21.25
2019-05-30T02:18:03.603Z,21.24
2019-05-30T02:19:56.302Z,21.14
2019-05-30T02:20:56.273Z,21.22
2019-05-30T02:22:49.380Z,21.20
2019-05-30T02:23:49.322Z,21.29
2019-05-30T02:25:41.416Z,21.22
2019-05-30T02:26:41.361Z,21.17
2019-05-30T02:28:34.391Z,21.11
2019-05-30T02:29:34.552Z,21.14
2019-05-30T03:02:28.947Z,21.17
2019-05-30T03:03:01.945Z,21.15
2019-05-30T03:04:53.258Z,21.21
2019-05-30T03:05:53.444Z,21.18
2019-05-30T03:07:46.228Z,21.15
2019-05-30T03:08:46.409Z,21.18
2019-05-30T03:10:39.195Z,21.12
2019-05-30T03:11:39.358Z,21.12
2019-05-30T03:13:31.314Z,21.15
2019-05-30T03:14:31.262Z,21.14
2019-05-30T03:16:24.261Z,21.15
2019-05-30T03:17:24.237Z,21.15
2019-05-30T03:19:17.231Z,21.15
2019-05-30T03:20:22.841Z,21.12
2019-05-30T03:22:12.230Z,21.11
2019-05-30T03:23:12.134Z,21.14
2019-05-30T03:25:04.624Z,21.15
2019-05-30T03:26:04.807Z,21.15
2019-05-30T03:27:57.027Z,21.15
2019-05-30T03:28:57.195Z,21.12
2019-05-30T03:30:49.899Z,21.17
2019-05-30T03:31:50.049Z,21.12
2019-05-30T03:33:43.305Z,21.17
2019-05-30T03:34:43.011Z,21.17
2019-05-30T03:36:34.861Z,21.17
2019-05-30T03:37:35.059Z,21.12
2019-05-30T03:39:26.791Z,21.15
2019-05-30T03:40:28.235Z,21.20
2019-05-30T03:42:19.859Z,21.15
2019-05-30T03:43:20.027Z,21.18
2019-05-30T03:45:16.235Z,21.14
2019-05-30T03:46:14.989Z,21.14
2019-05-30T03:48:09.103Z,21.14
2019-05-30T03:49:08.658Z,21.14
2019-05-30T03:50:59.930Z,21.15
2019-05-30T03:51:59.900Z,21.12
2019-05-30T03:53:53.006Z,21.15
2019-05-30T03:54:53.183Z,21.12
2019-05-30T03:56:45.964Z,21.17
2019-05-30T03:57:46.138Z,21.17
2019-05-30T03:59:38.912Z,21.12
2019-05-30T04:00:38.873Z,21.14
2019-05-30T04:02:31.854Z,21.11
2019-05-30T04:03:32.057Z,21.12
2019-05-30T04:05:23.906Z,21.12
2019-05-30T04:06:24.086Z,21.14
2019-05-30T04:08:16.846Z,21.18
2019-05-30T04:09:22.330Z,21.15
2019-05-30T04:11:12.442Z,21.14
2019-05-30T04:12:12.190Z,21.15
2019-05-30T04:14:03.498Z,21.15
2019-05-30T04:15:03.684Z,21.14
2019-05-30T04:16:55.537Z,21.17
2019-05-30T04:17:55.712Z,21.18
2019-05-30T04:19:48.573Z,21.14
2019-05-30T04:20:48.556Z,21.15
2019-05-30T04:22:41.537Z,21.14
2019-05-30T04:23:41.491Z,21.15
2019-05-30T04:25:34.499Z,21.18
2019-05-30T04:26:34.441Z,21.20
2019-05-30T04:28:27.454Z,21.11
2019-05-30T04:29:27.400Z,21.12
2019-05-30T04:31:20.718Z,21.15
2019-05-30T04:32:20.664Z,21.09
2019-05-30T04:34:14.750Z,21.14
2019-05-30T04:35:14.555Z,21.20
2019-05-30T04:37:05.917Z,21.12
2019-05-30T04:38:06.088Z,21.17
2019-05-30T04:39:58.854Z,21.14
2019-05-30T04:40:59.045Z,21.17
2019-05-30T04:42:51.920Z,21.24
2019-05-30T04:43:52.103Z,21.17
2019-05-30T04:45:44.865Z,21.17
2019-05-30T04:46:45.064Z,21.15
2019-05-30T04:48:37.841Z,21.21
2019-05-30T04:49:37.785Z,21.17
2019-05-30T04:51:30.808Z,21.21
2019-05-30T04:52:30.740Z,21.12
2019-05-30T04:54:23.732Z,21.18
2019-05-30T04:55:23.927Z,21.14
2019-05-30T04:57:16.970Z,21.17
2019-05-30T04:58:18.066Z,21.14
2019-05-30T05:00:10.755Z,21.17
2019-05-30T05:01:11.009Z,21.17
2019-05-30T05:03:02.618Z,21.17
2019-05-30T05:04:02.565Z,21.17
2019-05-30T05:05:55.584Z,21.15
2019-05-30T05:06:55.524Z,21.15
2019-05-30T05:08:48.521Z,21.21
2019-05-30T05:09:48.483Z,21.14
2019-05-30T05:11:40.658Z,21.14
2019-05-30T05:12:40.631Z,21.14
2019-05-30T05:14:33.623Z,21.11
2019-05-30T05:15:33.801Z,21.12
2019-05-30T05:17:26.681Z,21.24
2019-05-30T05:18:26.858Z,21.22
2019-05-30T05:20:19.631Z,21.27
2019-05-30T05:21:19.584Z,21.17
2019-05-30T05:23:13.005Z,21.18
2019-05-30T05:24:11.612Z,21.17
2019-05-30T05:26:04.734Z,21.17
2019-05-30T05:27:04.677Z,21.14
2019-05-30T05:28:57.787Z,21.14
2019-05-30T05:29:57.733Z,21.17
2019-05-30T05:31:50.729Z,21.17
2019-05-30T05:32:50.740Z,21.09
2019-05-30T05:34:43.717Z,21.15
2019-05-30T05:35:43.664Z,21.14
2019-05-30T05:37:36.643Z,21.14
2019-05-30T05:38:36.630Z,21.18
2019-05-30T05:40:28.595Z,21.18
2019-05-30T05:41:28.768Z,21.15
2019-05-30T05:43:22.488Z,21.17
2019-05-30T05:44:22.444Z,21.07
2019-05-30T05:46:13.587Z,21.17
2019-05-30T05:47:13.526Z,21.05
2019-05-30T05:49:06.515Z,21.11
2019-05-30T05:50:06.714Z,21.06
2019-05-30T05:51:59.494Z,21.12
2019-05-30T05:52:59.671Z,21.14
2019-05-30T05:54:52.428Z,21.05
2019-05-30T05:55:52.392Z,21.15
2019-05-30T05:57:45.402Z,21.11
2019-05-30T05:58:45.351Z,21.15
2019-05-30T06:00:38.351Z,21.06
2019-05-30T06:01:38.307Z,21.12
2019-05-30T06:03:30.397Z,21.15
2019-05-30T06:04:30.345Z,21.14
2019-05-30T06:06:23.475Z,21.14
2019-05-30T06:07:24.477Z,21.18
2019-05-30T06:09:16.550Z,21.15
2019-05-30T06:10:17.419Z,21.18
2019-05-30T06:12:09.394Z,21.14
2019-05-30T06:13:09.310Z,21.18
2019-05-30T06:15:03.332Z,21.12
2019-05-30T06:16:03.420Z,21.11
2019-05-30T06:17:55.593Z,21.17
2019-05-30T06:18:55.534Z,21.14
2019-05-30T06:20:48.517Z,21.18
2019-05-30T06:21:54.140Z,21.27
2019-05-30T06:23:41.401Z,21.25
2019-05-30T06:24:41.569Z,21.20
2019-05-30T06:26:34.343Z,21.32
2019-05-30T06:27:34.524Z,21.32
2019-05-30T06:29:28.296Z,21.25
2019-05-30T06:30:28.582Z,21.27
2019-05-30T06:32:20.924Z,21.29
2019-05-30T06:33:20.579Z,21.30
2019-05-30T06:35:13.523Z,21.27
2019-05-30T06:36:13.467Z,21.29
2019-05-30T06:38:05.853Z,21.36
2019-05-30T06:39:05.809Z,21.35
2019-05-30T06:40:58.925Z,21.37
2019-05-30T06:41:58.868Z,21.30
2019-05-30T06:43:52.075Z,21.35
2019-05-30T06:44:52.033Z,21.39
2019-05-30T06:46:45.042Z,21.37
2019-05-30T06:47:44.990Z,21.37
2019-05-30T06:49:37.996Z,21.37
2019-05-30T06:50:38.171Z,21.37
2019-05-30T06:52:32.104Z,21.25
2019-05-30T06:53:31.464Z,21.40
2019-05-30T06:55:23.143Z,21.36
2019-05-30T06:56:23.268Z,21.37
2019-05-30T06:58:15.941Z,21.29
2019-05-30T06:59:15.890Z,21.36
2019-05-30T07:01:08.985Z,21.36
2019-05-30T07:02:08.950Z,21.37
2019-05-30T07:04:02.368Z,21.42
2019-05-30T07:05:02.613Z,21.37
2019-05-30T07:06:55.344Z,21.36
2019-05-30T07:07:55.127Z,21.37
2019-05-30T07:09:48.057Z,21.40
2019-05-30T07:10:48.249Z,21.46
2019-05-30T07:12:40.416Z,21.39
2019-05-30T07:13:40.388Z,21.43
2019-05-30T07:15:34.443Z,21.43
2019-05-30T07:16:33.626Z,21.42
2019-05-30T07:18:25.601Z,21.43
2019-05-30T07:19:25.557Z,21.39
2019-05-30T07:21:18.568Z,21.46
2019-05-30T07:22:18.516Z,21.42
2019-05-30T07:24:10.606Z,21.51
2019-05-30T07:25:10.551Z,21.48
2019-05-30T07:27:03.542Z,21.50
2019-05-30T07:28:03.506Z,21.45
2019-05-30T07:29:56.510Z,21.43
2019-05-30T07:30:56.467Z,21.52
2019-05-30T07:32:49.468Z,21.51
2019-05-30T07:33:49.417Z,21.48
2019-05-30T07:35:41.495Z,21.48
2019-05-30T07:36:41.450Z,21.50
2019-05-30T07:38:34.624Z,21.52
2019-05-30T07:39:35.721Z,21.46
2019-05-30T07:41:26.819Z,21.55
2019-05-30T07:42:26.667Z,21.57
2019-05-30T07:44:19.447Z,21.55
2019-05-30T07:45:19.624Z,21.50
2019-05-30T07:47:12.396Z,21.50
2019-05-30T07:48:12.578Z,21.52
2019-05-30T07:50:05.360Z,21.58
2019-05-30T07:51:05.538Z,21.54
2019-05-30T07:52:58.299Z,21.50
2019-05-30T07:53:58.501Z,21.60
2019-05-30T07:55:51.277Z,21.52
2019-05-30T07:56:51.447Z,21.57
2019-05-30T07:58:43.412Z,21.52
2019-05-30T07:59:43.355Z,21.55
2019-05-30T08:01:35.750Z,21.58
2019-05-30T08:02:35.862Z,21.57
2019-05-30T08:04:29.456Z,21.54
2019-05-30T08:05:28.733Z,21.55
2019-05-30T08:07:21.765Z,21.57
2019-05-30T08:08:21.942Z,21.58
2019-05-30T08:10:14.703Z,21.62
2019-05-30T08:11:14.669Z,21.69
2019-05-30T08:13:07.677Z,21.66
2019-05-30T08:14:07.626Z,21.69
2019-05-30T08:16:00.641Z,21.61
2019-05-30T08:17:00.580Z,21.61
2019-05-30T08:18:53.569Z,21.64
2019-05-30T08:19:53.534Z,21.69
2019-05-30T08:21:46.545Z,21.66
2019-05-30T08:22:46.511Z,21.64
2019-05-30T08:24:39.789Z,21.70
2019-05-30T08:25:39.755Z,21.64
2019-05-30T08:27:32.387Z,21.75
2019-05-30T08:28:32.237Z,21.82
2019-05-30T08:30:24.841Z,21.82
2019-05-30T08:31:24.974Z,21.88
2019-05-30T08:33:21.275Z,21.91
2019-05-30T08:34:17.805Z,22.00
2019-05-30T08:36:10.866Z,22.08
2019-05-30T08:37:10.767Z,22.13
2019-05-30T08:39:03.760Z,22.26
2019-05-30T08:40:03.715Z,22.25
2019-05-30T08:41:56.708Z,22.06
2019-05-30T08:42:56.671Z,22.15
2019-05-30T08:44:49.682Z,22.15
2019-05-30T08:45:49.631Z,22.00
2019-05-30T08:47:42.639Z,22.14
2019-05-30T08:48:42.582Z,22.10
2019-05-30T08:50:36.809Z,22.15
2019-05-30T08:51:36.265Z,22.18
2019-05-30T08:53:28.553Z,22.25
2019-05-30T08:54:28.495Z,22.26
2019-05-30T08:56:21.512Z,22.39
2019-05-30T08:57:21.478Z,22.39
2019-05-30T08:59:14.462Z,22.33
2019-05-30T09:00:14.418Z,22.43
2019-05-30T09:02:06.606Z,22.50
2019-05-30T09:03:06.565Z,22.45
2019-05-30T09:04:58.617Z,22.53
2019-05-30T09:06:03.722Z,22.59
2019-05-30T09:07:50.679Z,22.57
2019-05-30T09:08:50.610Z,22.57
2019-05-30T09:10:44.402Z,22.55
2019-05-30T09:11:44.454Z,22.63
2019-05-30T09:13:35.976Z,22.43
2019-05-30T09:14:37.318Z,22.47
2019-05-30T09:16:27.486Z,22.55
2019-05-30T09:17:27.661Z,22.70
2019-05-30T09:19:20.427Z,22.57
2019-05-30T09:20:20.389Z,22.78
2019-05-30T09:22:13.435Z,22.85
2019-05-30T09:23:13.348Z,22.76
2019-05-30T09:25:05.416Z,22.80
2019-05-30T09:26:05.379Z,22.76
2019-05-30T09:27:57.475Z,22.73
2019-05-30T09:28:57.642Z,22.65
2019-05-30T09:30:50.430Z,22.69
2019-05-30T09:31:50.598Z,22.69
2019-05-30T09:33:42.760Z,22.72
2019-05-30T09:34:43.279Z,22.73
2019-05-30T09:36:35.421Z,22.78
2019-05-30T09:37:35.588Z,22.73
2019-05-30T09:39:29.823Z,22.78
2019-05-30T09:40:28.314Z,22.80
2019-05-30T09:42:21.422Z,22.78
2019-05-30T09:43:21.376Z,22.73
2019-05-30T09:45:13.450Z,22.69
2019-05-30T09:46:13.410Z,22.68
2019-05-30T09:48:06.614Z,22.75
2019-05-30T09:49:06.575Z,22.80
2019-05-30T09:50:59.786Z,22.73
2019-05-30T09:51:59.732Z,22.76
2019-05-30T09:53:52.904Z,22.68
2019-05-30T09:54:52.699Z,22.80
2019-05-30T09:56:46.543Z,22.73
2019-05-30T09:57:45.911Z,22.80
2019-05-30T09:59:38.345Z,22.80
2019-05-30T10:00:38.523Z,22.73
2019-05-30T10:02:31.307Z,22.81
2019-05-30T10:03:31.272Z,22.75
2019-05-30T10:05:24.654Z,22.80
2019-05-30T10:06:29.567Z,22.80
2019-05-30T10:08:16.477Z,22.81
2019-05-30T10:09:16.671Z,22.72
2019-05-30T10:11:09.444Z,22.70
2019-05-30T10:12:09.627Z,22.73
2019-05-30T10:14:02.408Z,22.78
2019-05-30T10:15:02.352Z,22.75
2019-05-30T10:16:56.456Z,22.75
2019-05-30T10:17:54.738Z,22.73
2019-05-30T10:19:48.699Z,22.83
2019-05-30T10:20:48.184Z,22.85
2019-05-30T10:22:40.364Z,22.85
2019-05-30T10:23:40.305Z,22.91
2019-05-30T10:25:32.388Z,23.06
2019-05-30T10:26:32.332Z,23.05
2019-05-30T10:28:25.349Z,23.10
2019-05-30T10:29:25.289Z,23.23
2019-05-30T10:31:18.282Z,23.15
2019-05-30T10:32:18.249Z,23.24
2019-05-30T10:34:11.270Z,23.25
2019-05-30T10:35:11.438Z,23.28
2019-05-30T10:37:05.131Z,23.25
2019-05-30T10:38:05.105Z,23.28
2019-05-30T10:39:59.218Z,23.13
2019-05-30T10:40:58.136Z,23.13
2019-05-30T10:42:52.763Z,23.17
2019-05-30T10:43:51.323Z,23.15
2019-05-30T10:45:44.833Z,23.15
2019-05-30T10:46:44.279Z,23.18
2019-05-30T10:48:37.059Z,23.08
2019-05-30T10:49:37.011Z,23.09
2019-05-30T10:51:30.128Z,23.09
2019-05-30T10:52:30.066Z,23.03
2019-05-30T10:54:23.059Z,23.05
2019-05-30T10:55:23.023Z,23.08
2019-05-30T10:57:16.040Z,23.10
2019-05-30T10:58:15.976Z,23.06
2019-05-30T11:00:10.035Z,23.02
2019-05-30T11:01:08.933Z,23.05
2019-05-30T11:03:02.044Z,22.98
2019-05-30T11:04:01.993Z,23.08
2019-05-30T11:05:55.046Z,23.09
2019-05-30T11:07:09.658Z,23.03
2019-05-30T11:08:49.135Z,23.03
2019-05-30T11:09:48.714Z,22.98
2019-05-30T11:11:40.996Z,23.10
2019-05-30T11:12:40.961Z,23.02
2019-05-30T11:14:33.047Z,23.00
2019-05-30T11:15:33.026Z,22.96
2019-05-30T11:17:26.106Z,22.94
2019-05-30T11:18:26.289Z,22.96
2019-05-30T11:20:19.069Z,22.87
2019-05-30T11:21:19.018Z,22.88
2019-05-30T11:23:11.999Z,22.83
2019-05-30T11:24:11.968Z,22.78
2019-05-30T11:26:04.976Z,22.76
2019-05-30T11:27:04.921Z,22.80
2019-05-30T11:28:58.841Z,22.69
2019-05-30T11:29:59.003Z,22.69
2019-05-30T11:31:50.886Z,22.70
2019-05-30T11:32:51.066Z,22.69
2019-05-30T11:34:43.209Z,22.75
2019-05-30T11:35:43.178Z,22.72
2019-05-30T11:37:35.566Z,22.69
2019-05-30T11:38:35.516Z,22.65
2019-05-30T11:40:28.512Z,22.68
2019-05-30T11:41:28.472Z,22.80
2019-05-30T11:43:21.597Z,22.85
2019-05-30T11:44:21.760Z,22.85
2019-05-30T11:46:14.524Z,22.80
2019-05-30T11:47:14.514Z,22.91
2019-05-30T11:49:07.592Z,22.88
2019-05-30T11:50:07.545Z,22.87
2019-05-30T11:52:00.568Z,22.98
2019-05-30T11:53:00.503Z,23.00
2019-05-30T11:54:54.163Z,22.99
2019-05-30T11:55:54.181Z,22.91
2019-05-30T11:57:46.576Z,22.88
2019-05-30T11:58:46.541Z,22.87
2019-05-30T12:00:39.606Z,22.78
2019-05-30T12:01:39.804Z,22.80
2019-05-30T12:03:32.589Z,22.76
2019-05-30T12:04:32.555Z,22.78
2019-05-30T12:06:24.705Z,22.70
2019-05-30T12:07:35.722Z,22.73
2019-05-30T12:09:17.872Z,22.73
2019-05-30T12:10:18.058Z,22.69
2019-05-30T12:12:10.820Z,22.72
2019-05-30T12:13:11.014Z,22.65
2019-05-30T12:15:03.893Z,22.69
2019-05-30T12:16:03.841Z,22.68
2019-05-30T12:17:57.463Z,22.66
2019-05-30T12:18:58.098Z,22.65
2019-05-30T12:20:49.789Z,22.62
2019-05-30T12:21:49.982Z,22.72
2019-05-30T12:23:41.872Z,22.73
2019-05-30T12:24:41.791Z,22.72
2019-05-30T12:26:34.897Z,22.81
2019-05-30T12:27:34.845Z,22.76
2019-05-30T12:29:27.867Z,22.80
2019-05-30T12:30:28.037Z,22.75
2019-05-30T12:32:20.792Z,22.76
2019-05-30T12:33:20.991Z,22.72
2019-05-30T12:35:12.947Z,22.73
2019-05-30T12:36:13.124Z,22.73
2019-05-30T12:38:06.721Z,22.76
2019-05-30T12:39:05.852Z,22.78
2019-05-30T12:40:58.776Z,22.78
2019-05-30T12:41:59.008Z,22.69
2019-05-30T12:43:50.892Z,22.65
2019-05-30T12:44:50.846Z,22.66
2019-05-30T12:46:43.835Z,22.69
2019-05-30T12:47:43.800Z,22.65
2019-05-30T12:49:36.807Z,22.69
2019-05-30T12:50:36.984Z,22.68
2019-05-30T12:52:28.724Z,22.57
2019-05-30T12:53:28.917Z,22.60
2019-05-30T12:55:21.899Z,22.60
2019-05-30T12:56:21.850Z,22.59
2019-05-30T12:58:15.760Z,22.57
2019-05-30T12:59:15.954Z,22.57
2019-05-30T13:01:08.935Z,22.70
2019-05-30T13:02:09.118Z,22.70
2019-05-30T13:04:03.102Z,22.63
2019-05-30T13:05:03.110Z,22.68
2019-05-30T13:06:55.981Z,22.69
2019-05-30T13:08:11.782Z,22.69
2019-05-30T13:09:47.203Z,22.57
2019-05-30T13:10:47.153Z,22.57
2019-05-30T13:12:40.128Z,22.60
2019-05-30T13:13:40.097Z,22.59
2019-05-30T13:15:32.283Z,22.59
2019-05-30T13:16:32.233Z,22.54
2019-05-30T13:18:25.223Z,22.45
2019-05-30T13:19:25.417Z,22.48
2019-05-30T13:21:18.191Z,22.45
2019-05-30T13:22:18.142Z,22.48
2019-05-30T13:24:11.140Z,22.60
2019-05-30T13:25:11.104Z,22.44
2019-05-30T13:27:04.108Z,22.53
2019-05-30T13:28:07.173Z,22.43
2019-05-30T13:29:57.985Z,22.41
2019-05-30T13:30:58.049Z,22.44
2019-05-30T13:32:49.099Z,22.41
2019-05-30T13:33:49.050Z,22.39
2019-05-30T13:35:42.149Z,22.36
2019-05-30T13:36:42.106Z,22.51
2019-05-30T13:38:35.117Z,22.36
2019-05-30T13:39:35.290Z,22.43
2019-05-30T13:41:28.058Z,22.33
2019-05-30T13:42:28.246Z,22.41
2019-05-30T13:44:21.125Z,22.33
2019-05-30T13:45:21.075Z,22.43
2019-05-30T13:47:14.083Z,22.36
2019-05-30T13:48:14.031Z,22.38
2019-05-30T13:50:09.802Z,22.33
2019-05-30T13:51:07.129Z,22.39
2019-05-30T13:52:59.074Z,22.35
2019-05-30T13:53:59.018Z,22.36
2019-05-30T13:55:52.007Z,22.39
2019-05-30T13:56:51.976Z,22.39
2019-05-30T13:58:44.989Z,22.29
2019-05-30T13:59:44.941Z,22.35
2019-05-30T14:01:37.925Z,22.38
2019-05-30T14:02:37.885Z,22.38
2019-05-30T14:04:30.897Z,22.35
2019-05-30T14:05:30.844Z,22.28
2019-05-30T14:07:23.227Z,22.35
2019-05-30T14:08:23.182Z,22.30
2019-05-30T14:10:15.268Z,22.23
2019-05-30T14:11:15.219Z,22.29
2019-05-30T14:13:08.991Z,22.30
2019-05-30T14:14:08.891Z,22.25
2019-05-30T14:16:01.285Z,22.25
2019-05-30T14:17:02.780Z,22.20
2019-05-30T14:18:54.226Z,22.26
2019-05-30T14:19:54.428Z,22.22
2019-05-30T14:21:46.379Z,22.22
2019-05-30T14:22:46.574Z,22.18
2019-05-30T14:24:39.335Z,22.23
2019-05-30T14:25:39.512Z,22.17
2019-05-30T14:27:31.688Z,22.13
2019-05-30T14:28:31.853Z,22.14
2019-05-30T14:30:24.627Z,22.14
2019-05-30T14:31:24.584Z,22.18
2019-05-30T14:33:17.588Z,22.20
2019-05-30T14:34:17.536Z,22.13
2019-05-30T14:36:12.614Z,22.18
2019-05-30T14:37:10.516Z,22.18
2019-05-30T14:39:04.740Z,22.14
2019-05-30T14:40:04.469Z,22.17
2019-05-30T14:41:55.534Z,22.14
2019-05-30T14:42:55.482Z,22.17
2019-05-30T14:44:47.652Z,22.17
2019-05-30T14:45:47.618Z,22.17
2019-05-30T14:47:40.628Z,22.14
2019-05-30T14:48:40.573Z,22.17
2019-05-30T14:50:33.596Z,22.15
2019-05-30T14:51:35.429Z,22.15
2019-05-30T14:53:26.523Z,22.23
2019-05-30T14:54:26.489Z,22.18
2019-05-30T14:56:19.600Z,22.18
2019-05-30T14:57:19.549Z,22.18
2019-05-30T14:59:11.630Z,22.14
2019-05-30T15:00:11.580Z,22.13
2019-05-30T15:02:05.074Z,22.10
2019-05-30T15:03:08.487Z,22.15
2019-05-30T15:04:57.740Z,22.13
2019-05-30T15:05:57.695Z,22.18
2019-05-30T15:07:49.786Z,22.13
2019-05-30T15:08:49.733Z,22.26
2019-05-30T15:10:42.715Z,22.29
2019-05-30T15:11:42.687Z,22.25
2019-05-30T15:13:35.793Z,22.26
2019-05-30T15:14:35.753Z,22.20
2019-05-30T15:16:28.767Z,22.25
2019-05-30T15:17:28.704Z,22.30
2019-05-30T15:19:20.873Z,22.29
2019-05-30T15:20:20.835Z,22.32
2019-05-30T15:22:16.766Z,22.28
2019-05-30T15:23:13.876Z,22.26
2019-05-30T15:25:07.969Z,22.36
2019-05-30T15:26:07.877Z,22.38
2019-05-30T15:27:59.930Z,22.30
2019-05-30T15:28:59.815Z,22.33
2019-05-30T15:30:52.800Z,22.36
2019-05-30T15:31:52.765Z,22.33
2019-05-30T15:33:45.875Z,22.30
2019-05-30T15:34:45.823Z,22.38
2019-05-30T15:36:38.837Z,22.35
2019-05-30T15:37:40.862Z,22.38
2019-05-30T15:39:33.037Z,22.35
2019-05-30T15:40:31.736Z,22.36
2019-05-30T15:42:24.741Z,22.35
2019-05-30T15:43:24.691Z,22.35
2019-05-30T15:45:18.134Z,22.39
2019-05-30T15:46:18.090Z,22.35
2019-05-30T15:48:10.651Z,22.44
2019-05-30T15:49:10.842Z,22.41
2019-05-30T15:51:03.611Z,22.39
2019-05-30T15:52:03.557Z,22.38
2019-05-30T15:53:55.736Z,22.33
2019-05-30T15:54:55.925Z,22.35
2019-05-30T15:56:48.805Z,22.43
2019-05-30T15:57:48.983Z,22.39
2019-05-30T15:59:40.923Z,22.47
2019-05-30T16:00:40.889Z,22.47
2019-05-30T16:02:34.003Z,22.48
2019-05-30T16:03:33.946Z,22.45
2019-05-30T16:05:26.938Z,22.45
2019-05-30T16:06:26.906Z,22.48
2019-05-30T16:08:20.946Z,22.54
2019-05-30T16:09:20.943Z,22.36
2019-05-30T16:11:12.810Z,22.43
2019-05-30T16:12:13.036Z,22.32
2019-05-30T16:14:04.390Z,22.39
2019-05-30T16:15:04.344Z,22.38
2019-05-30T16:16:57.329Z,22.45
2019-05-30T16:17:57.293Z,22.44
2019-05-30T16:19:50.305Z,22.47
2019-05-30T16:20:50.249Z,22.38
2019-05-30T16:22:43.258Z,22.48
2019-05-30T16:23:43.207Z,22.50
2019-05-30T16:25:35.285Z,22.32
2019-05-30T16:26:35.470Z,22.48
2019-05-30T16:28:28.254Z,22.38
2019-05-30T16:29:28.198Z,22.36
2019-05-30T16:31:22.388Z,22.35
2019-05-30T16:32:22.189Z,22.45
2019-05-30T16:34:14.365Z,22.43
2019-05-30T16:35:14.543Z,22.44
2019-05-30T16:37:07.315Z,22.48
2019-05-30T16:38:07.396Z,22.38
2019-05-30T16:40:06.089Z,22.35
2019-05-30T16:40:59.550Z,22.35
2019-05-30T16:42:52.518Z,22.47
2019-05-30T16:43:52.467Z,22.38
2019-05-30T16:45:44.654Z,22.36
2019-05-30T16:46:44.604Z,22.39
2019-05-30T16:48:36.691Z,22.48
2019-05-30T16:49:36.636Z,22.47
2019-05-30T16:51:29.633Z,22.41
2019-05-30T16:52:29.596Z,22.47
2019-05-30T16:54:23.462Z,22.45
2019-05-30T16:55:23.425Z,22.43
2019-05-30T16:57:14.717Z,22.48
2019-05-30T16:58:15.463Z,22.48
2019-05-30T17:00:07.693Z,22.39
2019-05-30T17:01:07.867Z,22.33
2019-05-30T17:03:01.569Z,22.38
2019-05-30T17:04:01.521Z,22.35
2019-05-30T17:05:55.462Z,22.33
2019-05-30T17:06:54.477Z,22.38
2019-05-30T17:08:47.590Z,22.38
2019-05-30T17:09:47.535Z,22.41
2019-05-30T17:11:40.527Z,22.29
2019-05-30T17:12:40.490Z,22.30
2019-05-30T17:14:33.499Z,22.36
2019-05-30T17:15:33.447Z,22.39
2019-05-30T17:17:26.201Z,22.33
2019-05-30T17:18:26.406Z,22.38
2019-05-30T17:20:18.593Z,22.38
2019-05-30T17:21:18.535Z,22.35
2019-05-30T17:23:10.607Z,22.36
2019-05-30T17:24:10.571Z,22.41
2019-05-30T17:26:03.686Z,22.38
2019-05-30T17:27:03.630Z,22.30
2019-05-30T17:28:55.717Z,22.38
2019-05-30T17:29:55.689Z,22.30
2019-05-30T17:31:48.783Z,22.35
2019-05-30T17:32:48.953Z,22.38
2019-05-30T17:34:41.757Z,22.25
2019-05-30T17:35:41.703Z,22.28
2019-05-30T17:37:34.706Z,22.28
2019-05-30T17:38:34.637Z,22.29
2019-05-30T17:40:41.163Z,22.26
2019-05-30T17:41:26.850Z,22.30
2019-05-30T17:43:20.903Z,22.30
2019-05-30T17:44:20.980Z,22.32
2019-05-30T17:46:12.614Z,22.33
2019-05-30T17:47:12.843Z,22.35
2019-05-30T17:49:04.676Z,22.32
2019-05-30T17:50:04.624Z,22.32
2019-05-30T17:51:57.608Z,22.35
2019-05-30T17:52:57.569Z,22.26
2019-05-30T17:54:50.679Z,22.17
2019-05-30T17:55:50.627Z,22.33
2019-05-30T17:57:44.552Z,22.26
2019-05-30T17:58:44.518Z,22.29
2019-05-30T18:00:37.541Z,22.32
2019-05-30T18:01:37.465Z,22.26
2019-05-30T18:03:30.675Z,22.26
2019-05-30T18:04:30.737Z,22.22
2019-05-30T18:06:22.512Z,22.23
2019-05-30T18:07:22.766Z,22.23
2019-05-30T18:09:15.544Z,22.22
2019-05-30T18:10:15.560Z,22.23
2019-05-30T18:12:08.519Z,22.17
2019-05-30T18:13:08.467Z,22.20
2019-05-30T18:15:02.396Z,22.22
2019-05-30T18:16:02.582Z,22.20
2019-05-30T18:17:54.431Z,22.20
2019-05-30T18:18:54.403Z,22.22
2019-05-30T18:20:48.724Z,22.13
2019-05-30T18:21:46.847Z,22.15
2019-05-30T18:23:38.403Z,22.22
2019-05-30T18:24:38.348Z,22.13
2019-05-30T18:26:31.864Z,22.14
2019-05-30T18:27:32.154Z,22.17
2019-05-30T18:29:24.413Z,22.15
2019-05-30T18:30:24.361Z,22.14
2019-05-30T18:32:17.357Z,22.10
2019-05-30T18:33:17.321Z,22.14
2019-05-30T18:35:10.431Z,22.14
2019-05-30T18:36:10.375Z,22.08
2019-05-30T18:38:03.673Z,22.07
2019-05-30T18:39:03.641Z,22.17
2019-05-30T18:41:10.227Z,22.15
2019-05-30T18:41:55.775Z,22.11
2019-05-30T18:43:47.843Z,22.11
2019-05-30T18:44:47.832Z,22.13
2019-05-30T18:46:40.922Z,22.14
2019-05-30T18:47:41.107Z,22.14
2019-05-30T18:49:33.856Z,22.10
2019-05-30T18:50:33.824Z,22.07
2019-05-30T18:52:26.167Z,22.07
2019-05-30T18:53:26.266Z,22.07
2019-05-30T18:55:18.139Z,22.14
2019-05-30T18:56:18.107Z,22.04
2019-05-30T18:58:11.098Z,22.07
2019-05-30T18:59:11.286Z,22.08
2019-05-30T19:01:04.046Z,21.99
2019-05-30T19:02:04.135Z,22.00
2019-05-30T19:03:57.223Z,22.02